Skip Navigation LinksHome page > Weather > Current weather Skip Navigation Links

Current Weather

Bay Bridge, Stevensville, Md.

For information only: do not use for flight planning or navigation.
Latest weather
Observation time Wednesday, January 27, 2021 12:15 PM EST
Local time Wednesday, January 27, 2021 12:29 PM EST
Flight conditions Visual Meteorological Conditions
Winds
Wind direction Northwest (320°)
Wind speed 12 mph
Visibility 10 mi.
Sky condition
Ceiling 4,200 ft. overcast
Cloud layer overcast 4,200 ft.
Temperature 41°F
Dewpoint 30°F
Altimeter 30.09 in.Hg
Derived measurements
Relative humidity 65%
Wind chill 34°F
Density altitude -1300 ft.
Remarks
Fully automated report.
Automated weather observing station with precipitation discriminator.
METAR KW29 271715Z AUTO 32010KT 10SM OVC042 05/M01 A3009 RMK AO2

Settings

Location code

InnerDrive.Weather 4.0.6770.0 Release CLR 4.0.30319.42000
Copyright ©2018 Inner Drive Technology. All rights reserved. Portions Copyright ©1986-2018 David Braverman.

Find weather

Site navigation


Skip Navigation Links

Place info

Page info

PayPal - The safer, easier way to pay online!

Return home.

Copyright ©2021 Inner Drive Technology. Purveyors of fine, hand-crafted computer software. Page printed 2021-01-27T17:29:33 UTC.